createdAt,value
2024-05-09T00:00:54.289Z,0
2024-05-09T00:02:03.438Z,0
2024-05-09T00:03:11.640Z,0
2024-05-09T00:04:20.802Z,0
2024-05-09T00:05:30.002Z,0
2024-05-09T00:06:39.220Z,0
2024-05-09T00:07:48.298Z,0
2024-05-09T00:08:57.689Z,0
2024-05-09T00:10:05.667Z,0
2024-05-09T00:11:14.088Z,0
2024-05-09T00:12:23.059Z,0
2024-05-09T00:13:32.488Z,0
2024-05-09T00:14:41.370Z,0
2024-05-09T00:15:50.760Z,0
2024-05-09T00:16:59.820Z,0
2024-05-09T00:18:08.923Z,0
2024-05-09T00:19:18.072Z,0
2024-05-09T00:20:27.242Z,0
2024-05-09T00:21:36.450Z,0
2024-05-09T00:22:45.577Z,0
2024-05-09T00:23:54.767Z,0
2024-05-09T00:25:03.929Z,0
2024-05-09T00:26:13.003Z,0
2024-05-09T00:27:21.370Z,0
2024-05-09T00:28:30.458Z,0
2024-05-09T00:29:39.636Z,0
2024-05-09T00:30:48.967Z,0
2024-05-09T00:31:57.995Z,0
2024-05-09T00:33:06.175Z,0
2024-05-09T00:34:14.362Z,0
2024-05-09T00:35:22.558Z,0
2024-05-09T00:36:31.757Z,0
2024-05-09T00:37:40.886Z,0
2024-05-09T00:38:50.087Z,0
2024-05-09T00:39:59.241Z,0
2024-05-09T00:41:08.456Z,0
2024-05-09T00:42:17.590Z,0
2024-05-09T00:43:26.765Z,0
2024-05-09T00:44:35.935Z,0
2024-05-09T00:45:45.146Z,0
2024-05-09T00:46:54.277Z,0
2024-05-09T00:48:03.458Z,0
2024-05-09T00:49:12.625Z,0
2024-05-09T00:50:20.815Z,0
2024-05-09T00:51:30.022Z,0
2024-05-09T00:52:39.265Z,0
2024-05-09T00:53:48.332Z,0
2024-05-09T00:54:57.498Z,0
2024-05-09T00:56:06.702Z,0
2024-05-09T00:57:14.867Z,0
2024-05-09T00:58:23.234Z,0
2024-05-09T00:59:32.228Z,0
2024-05-09T01:00:41.492Z,0
2024-05-09T01:01:50.599Z,0
2024-05-09T01:03:01.076Z,0
2024-05-09T01:04:08.932Z,0
2024-05-09T01:05:18.103Z,0
2024-05-09T01:06:27.255Z,0
2024-05-09T01:07:36.442Z,0
2024-05-09T01:08:45.645Z,0
2024-05-09T01:09:54.817Z,0
2024-05-09T01:11:04.080Z,0
2024-05-09T01:12:13.115Z,0
2024-05-09T01:13:21.308Z,0
2024-05-09T01:14:30.502Z,0
2024-05-09T01:15:39.693Z,0
2024-05-09T01:16:48.834Z,0
2024-05-09T01:17:57.997Z,0
2024-05-09T01:19:07.193Z,0
2024-05-09T01:20:15.374Z,0
2024-05-09T01:21:23.561Z,0
2024-05-09T01:22:31.762Z,0
2024-05-09T01:23:40.941Z,0
2024-05-09T01:24:50.093Z,0
2024-05-09T01:25:59.348Z,0
2024-05-09T01:27:08.443Z,0
2024-05-09T01:28:17.617Z,0
2024-05-09T01:29:26.788Z,0
2024-05-09T01:30:35.966Z,0
2024-05-09T01:31:45.128Z,0
2024-05-09T01:32:54.312Z,0
2024-05-09T01:34:03.510Z,0
2024-05-09T01:35:12.650Z,0
2024-05-09T01:36:21.876Z,0
2024-05-09T01:37:30.020Z,0
2024-05-09T01:38:39.188Z,0
2024-05-09T01:39:48.359Z,0
2024-05-09T01:40:57.523Z,0
2024-05-09T01:42:06.701Z,0
2024-05-09T01:43:15.866Z,0
2024-05-09T01:44:24.088Z,0
2024-05-09T01:45:32.286Z,0
2024-05-09T01:46:41.421Z,0
2024-05-09T01:47:50.615Z,0
2024-05-09T01:48:59.803Z,0
2024-05-09T01:50:08.947Z,0
2024-05-09T01:51:18.115Z,0
2024-05-09T01:52:27.288Z,0
2024-05-09T01:53:36.462Z,0
2024-05-09T01:54:45.686Z,0
2024-05-09T01:55:54.825Z,0
2024-05-09T01:57:03.991Z,0
2024-05-09T01:58:13.199Z,0
2024-05-09T01:59:22.340Z,0
2024-05-09T02:00:30.512Z,0
2024-05-09T02:01:39.694Z,0
2024-05-09T02:02:48.865Z,0
2024-05-09T02:03:58.035Z,0
2024-05-09T02:05:07.237Z,0
2024-05-09T02:06:16.379Z,0
2024-05-09T02:07:24.601Z,0
2024-05-09T02:08:33.755Z,0
2024-05-09T02:09:41.968Z,0
2024-05-09T02:10:51.110Z,0
2024-05-09T02:12:00.278Z,0
2024-05-09T02:13:09.462Z,0
2024-05-09T02:14:18.618Z,0
2024-05-09T02:15:27.796Z,0
2024-05-09T02:16:37.868Z,0
2024-05-09T02:17:46.142Z,0
2024-05-09T02:18:55.307Z,0
2024-05-09T02:20:04.512Z,0
2024-05-09T02:21:13.660Z,0
2024-05-09T02:22:22.827Z,0
2024-05-09T02:23:32.014Z,0
2024-05-09T02:24:40.231Z,0
2024-05-09T02:25:49.389Z,0
2024-05-09T02:26:58.543Z,0
2024-05-09T02:28:07.786Z,0
2024-05-09T02:29:16.878Z,0
2024-05-09T02:30:26.081Z,0
2024-05-09T02:31:35.244Z,0
2024-05-09T02:32:44.406Z,0
2024-05-09T02:33:53.574Z,0
2024-05-09T02:35:02.755Z,0
2024-05-09T02:36:11.949Z,0
2024-05-09T02:37:21.088Z,0
2024-05-09T02:38:30.304Z,0
2024-05-09T02:39:38.490Z,0
2024-05-09T02:40:47.633Z,0
2024-05-09T02:41:56.846Z,0
2024-05-09T02:43:05.978Z,0
2024-05-09T02:44:15.161Z,0
2024-05-09T02:45:24.322Z,0
2024-05-09T02:46:33.488Z,0
2024-05-09T02:47:42.664Z,0
2024-05-09T02:48:51.872Z,0
2024-05-09T02:50:01.014Z,0
2024-05-09T02:51:10.185Z,0
2024-05-09T02:52:19.353Z,0
2024-05-09T02:53:28.538Z,0
2024-05-09T02:54:36.719Z,0
2024-05-09T02:55:45.992Z,0
2024-05-09T02:56:55.093Z,0
2024-05-09T03:00:22.583Z,0
2024-05-09T03:01:31.823Z,0
2024-05-09T03:02:40.975Z,0
2024-05-09T03:03:50.193Z,0
2024-05-09T03:04:59.266Z,0
2024-05-09T03:06:08.532Z,0
2024-05-09T03:07:17.656Z,0
2024-05-09T03:08:26.779Z,0
2024-05-09T03:09:35.008Z,0
2024-05-09T03:10:44.188Z,0
2024-05-09T03:11:53.373Z,0
2024-05-09T03:13:02.492Z,0
2024-05-09T03:14:11.671Z,0
2024-05-09T03:15:20.862Z,0
2024-05-09T03:16:30.027Z,0
2024-05-09T03:17:39.196Z,0
2024-05-09T03:18:48.355Z,0
2024-05-09T03:19:57.562Z,0
2024-05-09T03:21:06.690Z,0
2024-05-09T03:22:15.883Z,0
2024-05-09T03:23:24.071Z,0
2024-05-09T03:24:33.230Z,0
2024-05-09T03:25:42.438Z,0
2024-05-09T03:26:51.593Z,0
2024-05-09T03:28:00.961Z,0
2024-05-09T03:29:09.972Z,0
2024-05-09T03:30:19.101Z,0
2024-05-09T03:31:28.323Z,0
2024-05-09T03:32:36.498Z,0
2024-05-09T03:33:44.678Z,0
2024-05-09T03:34:53.838Z,0
2024-05-09T03:36:02.023Z,0
2024-05-09T03:37:11.201Z,0
2024-05-09T03:38:20.368Z,0
2024-05-09T03:39:29.607Z,0
2024-05-09T03:40:38.711Z,0
2024-05-09T03:41:47.881Z,0
2024-05-09T03:42:57.105Z,0
2024-05-09T03:44:06.231Z,5
2024-05-09T03:45:15.414Z,5
2024-05-09T03:46:24.579Z,5
2024-05-09T03:47:33.759Z,5
2024-05-09T03:48:42.958Z,5
2024-05-09T03:49:52.102Z,5
2024-05-09T03:51:00.343Z,5
2024-05-09T03:52:09.467Z,5
2024-05-09T03:53:18.665Z,11
2024-05-09T03:54:27.805Z,11
2024-05-09T03:55:36.999Z,11
2024-05-09T03:56:45.169Z,11
2024-05-09T03:57:53.366Z,11
2024-05-09T03:59:02.530Z,11
2024-05-09T04:00:11.775Z,16
2024-05-09T04:01:20.983Z,16
2024-05-09T04:02:30.074Z,16
2024-05-09T04:03:39.238Z,16
2024-05-09T04:04:49.138Z,16
2024-05-09T04:05:57.568Z,22
2024-05-09T04:07:06.740Z,22
2024-05-09T04:08:15.946Z,22
2024-05-09T04:09:25.092Z,22
2024-05-09T04:10:34.287Z,28
2024-05-09T04:11:43.434Z,28
2024-05-09T04:12:51.627Z,28
2024-05-09T04:14:00.805Z,28
2024-05-09T04:15:09.986Z,28
2024-05-09T04:16:19.146Z,33
2024-05-09T04:17:28.316Z,33
2024-05-09T04:18:37.498Z,33
2024-05-09T04:19:45.701Z,33
2024-05-09T04:20:53.870Z,39
2024-05-09T04:22:03.043Z,39
2024-05-09T04:23:12.207Z,39
2024-05-09T04:24:21.383Z,45
2024-05-09T04:25:30.561Z,45
2024-05-09T04:26:39.728Z,45
2024-05-09T04:27:48.939Z,50
2024-05-09T04:28:58.093Z,45
2024-05-09T04:30:07.238Z,45
2024-05-09T04:31:16.431Z,50
2024-05-09T04:32:25.587Z,50
2024-05-09T04:33:34.766Z,50
2024-05-09T04:34:43.956Z,56
2024-05-09T04:35:52.239Z,56
2024-05-09T04:37:01.333Z,56
2024-05-09T04:38:10.464Z,61
2024-05-09T04:39:19.641Z,61
2024-05-09T04:40:28.846Z,67
2024-05-09T04:41:37.979Z,67
2024-05-09T04:42:46.215Z,73
2024-05-09T04:43:54.391Z,73
2024-05-09T04:45:03.565Z,73
2024-05-09T04:46:11.735Z,73
2024-05-09T04:47:20.920Z,73
2024-05-09T04:48:30.093Z,78
2024-05-09T04:49:39.254Z,78
2024-05-09T04:50:48.469Z,78
2024-05-09T04:51:57.602Z,78
2024-05-09T04:53:06.797Z,84
2024-05-09T04:54:15.966Z,84
2024-05-09T04:55:25.126Z,90
2024-05-09T04:56:34.291Z,95
2024-05-09T04:57:43.462Z,95
2024-05-09T04:58:52.684Z,101
2024-05-09T05:00:01.827Z,101
2024-05-09T05:01:11.002Z,106
2024-05-09T05:02:19.159Z,106
2024-05-09T05:03:28.331Z,106
2024-05-09T05:04:37.533Z,106
2024-05-09T05:05:46.743Z,112
2024-05-09T05:06:54.908Z,118
2024-05-09T05:08:03.071Z,118
2024-05-09T05:09:12.248Z,118
2024-05-09T05:10:21.430Z,123
2024-05-09T05:11:30.588Z,123
2024-05-09T05:12:39.795Z,118
2024-05-09T05:13:48.966Z,118
2024-05-09T05:14:58.115Z,118
2024-05-09T05:16:07.284Z,123
2024-05-09T05:17:16.466Z,123
2024-05-09T05:18:26.071Z,123
2024-05-09T05:19:34.880Z,123
2024-05-09T05:20:43.971Z,129
2024-05-09T05:21:53.172Z,129
2024-05-09T05:23:01.331Z,135
2024-05-09T05:24:10.492Z,135
2024-05-09T05:25:19.673Z,140
2024-05-09T05:26:28.844Z,146
2024-05-09T05:27:38.014Z,146
2024-05-09T05:28:47.187Z,151
2024-05-09T05:29:56.351Z,151
2024-05-09T05:31:05.551Z,151
2024-05-09T05:32:14.730Z,151
2024-05-09T05:33:23.913Z,151
2024-05-09T05:34:33.051Z,151
2024-05-09T05:35:42.231Z,157
2024-05-09T05:36:51.388Z,157
2024-05-09T05:37:59.588Z,157
2024-05-09T05:39:08.754Z,157
2024-05-09T05:40:17.928Z,157
2024-05-09T05:41:27.142Z,157
2024-05-09T05:42:36.286Z,151
2024-05-09T05:43:45.451Z,151
2024-05-09T05:44:54.625Z,151
2024-05-09T05:46:03.807Z,151
2024-05-09T05:47:12.983Z,151
2024-05-09T05:48:22.137Z,157
2024-05-09T05:49:31.323Z,157
2024-05-09T05:50:40.562Z,157
2024-05-09T05:51:49.685Z,163
2024-05-09T05:52:57.843Z,168
2024-05-09T05:54:07.968Z,174
2024-05-09T05:55:16.182Z,168
2024-05-09T05:56:25.373Z,168
2024-05-09T05:57:34.540Z,174
2024-05-09T05:58:43.694Z,174
2024-05-09T05:59:52.955Z,174
2024-05-09T06:01:02.048Z,174
2024-05-09T06:02:11.223Z,180
2024-05-09T06:03:20.475Z,185
2024-05-09T06:04:29.561Z,185
2024-05-09T06:05:38.749Z,185
2024-05-09T06:06:47.945Z,185
2024-05-09T06:07:56.165Z,185
2024-05-09T06:09:04.331Z,191
2024-05-09T06:10:12.505Z,191
2024-05-09T06:11:21.657Z,191
2024-05-09T06:12:30.821Z,191
2024-05-09T06:13:39.992Z,196
2024-05-09T06:14:49.169Z,196
2024-05-09T06:15:58.343Z,196
2024-05-09T06:17:07.537Z,196
2024-05-09T06:18:16.678Z,202
2024-05-09T06:19:25.851Z,202
2024-05-09T06:20:35.046Z,202
2024-05-09T06:21:44.198Z,202
2024-05-09T06:22:53.366Z,208
2024-05-09T06:24:02.575Z,208
2024-05-09T06:25:10.726Z,208
2024-05-09T06:26:19.914Z,208
2024-05-09T06:27:29.077Z,208
2024-05-09T06:28:38.275Z,213
2024-05-09T06:29:47.961Z,213
2024-05-09T06:30:56.604Z,208
2024-05-09T06:32:05.761Z,208
2024-05-09T06:33:15.042Z,208
2024-05-09T06:34:24.097Z,208
2024-05-09T06:35:33.292Z,208
2024-05-09T06:36:42.472Z,208
2024-05-09T06:37:51.625Z,208
2024-05-09T06:39:00.910Z,213
2024-05-09T06:40:09.003Z,213
2024-05-09T06:41:18.398Z,213
2024-05-09T06:42:27.342Z,219
2024-05-09T06:43:35.754Z,219
2024-05-09T06:44:43.757Z,219
2024-05-09T06:45:53.021Z,219
2024-05-09T06:47:02.168Z,219
2024-05-09T06:48:11.247Z,219
2024-05-09T06:49:20.521Z,219
2024-05-09T06:50:29.565Z,225
2024-05-09T06:51:38.747Z,225
2024-05-09T06:52:47.972Z,225
2024-05-09T06:53:57.117Z,225
2024-05-09T06:55:06.365Z,225
2024-05-09T06:56:15.454Z,225
2024-05-09T06:57:24.653Z,225
2024-05-09T06:58:33.967Z,225
2024-05-09T06:59:41.966Z,225
2024-05-09T07:00:51.255Z,230
2024-05-09T07:02:00.446Z,230
2024-05-09T07:03:09.482Z,225
2024-05-09T07:04:18.707Z,225
2024-05-09T07:05:27.827Z,225
2024-05-09T07:06:36.999Z,230
2024-05-09T07:07:46.201Z,230
2024-05-09T07:08:55.610Z,230
2024-05-09T07:10:04.605Z,236
2024-05-09T07:11:13.985Z,236
2024-05-09T07:12:22.877Z,236
2024-05-09T07:13:32.282Z,236
2024-05-09T07:14:40.410Z,236
2024-05-09T07:15:49.427Z,236
2024-05-09T07:16:58.567Z,236
2024-05-09T07:19:17.110Z,236
2024-05-09T07:20:26.077Z,236
2024-05-09T07:21:35.257Z,241
2024-05-09T07:22:44.517Z,241
2024-05-09T07:23:53.646Z,241
2024-05-09T07:25:02.779Z,241
2024-05-09T07:26:11.952Z,241
2024-05-09T07:27:21.198Z,241
2024-05-09T07:28:30.302Z,241
2024-05-09T07:29:38.502Z,247
2024-05-09T07:30:47.740Z,247
2024-05-09T07:31:56.829Z,241
2024-05-09T07:33:06.036Z,241
2024-05-09T07:34:15.191Z,241
2024-05-09T07:35:23.378Z,247
2024-05-09T07:36:31.574Z,241
2024-05-09T07:37:39.760Z,247
2024-05-09T07:38:48.928Z,247
2024-05-09T07:39:58.124Z,247
2024-05-09T07:41:07.273Z,247
2024-05-09T07:42:16.435Z,247
2024-05-09T07:43:25.630Z,247
2024-05-09T07:44:34.871Z,247
2024-05-09T07:45:43.931Z,253
2024-05-09T07:46:53.142Z,253
2024-05-09T07:48:02.290Z,258
2024-05-09T07:49:11.479Z,258
2024-05-09T07:50:20.646Z,253
2024-05-09T07:51:29.808Z,253
2024-05-09T07:52:38.002Z,253
2024-05-09T07:53:47.235Z,258
2024-05-09T07:54:56.353Z,253
2024-05-09T07:56:05.536Z,241
2024-05-09T07:57:14.700Z,253
2024-05-09T07:58:23.866Z,258
2024-05-09T07:59:32.062Z,258
2024-05-09T08:00:40.250Z,258
2024-05-09T08:01:49.514Z,258
2024-05-09T08:02:58.597Z,258
2024-05-09T08:04:07.770Z,258
2024-05-09T08:05:16.983Z,258
2024-05-09T08:06:26.308Z,258
2024-05-09T08:07:35.298Z,258
2024-05-09T08:08:44.475Z,264
2024-05-09T08:09:53.635Z,264
2024-05-09T08:11:02.840Z,264
2024-05-09T08:12:11.974Z,264
2024-05-09T08:13:21.153Z,264
2024-05-09T08:14:30.301Z,264
2024-05-09T08:15:38.500Z,264
2024-05-09T08:16:47.659Z,264
2024-05-09T08:17:56.844Z,264
2024-05-09T08:19:06.983Z,264
2024-05-09T08:20:15.176Z,270
2024-05-09T08:21:24.348Z,270
2024-05-09T08:22:33.525Z,270
2024-05-09T08:23:42.686Z,270
2024-05-09T08:24:51.850Z,264
2024-05-09T08:26:01.066Z,264
2024-05-09T08:27:10.218Z,264
2024-05-09T08:28:19.377Z,270
2024-05-09T08:29:28.555Z,270
2024-05-09T08:30:36.734Z,270
2024-05-09T08:31:45.911Z,270
2024-05-09T08:32:55.122Z,275
2024-05-09T08:34:04.253Z,275
2024-05-09T08:35:13.480Z,275
2024-05-09T08:36:22.655Z,275
2024-05-09T08:37:31.765Z,275
2024-05-09T08:38:40.948Z,275
2024-05-09T08:39:50.389Z,275
2024-05-09T08:42:08.598Z,281
2024-05-09T08:43:17.994Z,281
2024-05-09T08:44:27.100Z,281
2024-05-09T08:45:34.990Z,281
2024-05-09T08:46:44.157Z,281
2024-05-09T08:47:53.444Z,281
2024-05-09T08:49:02.549Z,286
2024-05-09T08:50:11.684Z,281
2024-05-09T08:51:21.109Z,281
2024-05-09T08:52:30.023Z,281
2024-05-09T08:53:39.209Z,281
2024-05-09T08:54:48.988Z,281
2024-05-09T08:55:57.732Z,281
2024-05-09T08:57:06.710Z,281
2024-05-09T08:58:15.921Z,281
2024-05-09T08:59:25.092Z,281
2024-05-09T09:00:33.248Z,281
2024-05-09T09:01:42.563Z,281
2024-05-09T09:02:51.572Z,281
2024-05-09T09:03:59.864Z,286
2024-05-09T09:05:07.989Z,286
2024-05-09T09:06:16.233Z,286
2024-05-09T09:07:25.361Z,286
2024-05-09T09:08:34.603Z,286
2024-05-09T09:09:43.707Z,286
2024-05-09T09:10:52.949Z,286
2024-05-09T09:12:02.072Z,286
2024-05-09T09:13:11.231Z,286
2024-05-09T09:14:20.418Z,286
2024-05-09T09:15:29.537Z,286
2024-05-09T09:16:38.775Z,286
2024-05-09T09:17:47.905Z,286
2024-05-09T09:18:57.095Z,286
2024-05-09T09:20:06.244Z,286
2024-05-09T09:21:15.438Z,286
2024-05-09T09:22:23.690Z,286
2024-05-09T09:23:32.776Z,286
2024-05-09T09:24:41.929Z,286
2024-05-09T09:25:51.106Z,286
2024-05-09T09:27:00.322Z,286
2024-05-09T09:28:09.491Z,292
2024-05-09T09:29:18.736Z,292
2024-05-09T09:30:27.786Z,292
2024-05-09T09:31:37.115Z,292
2024-05-09T09:32:46.161Z,292
2024-05-09T09:33:55.426Z,292
2024-05-09T09:35:04.596Z,292
2024-05-09T09:36:13.674Z,298
2024-05-09T09:37:21.829Z,298
2024-05-09T09:38:31.034Z,298
2024-05-09T09:39:39.212Z,298
2024-05-09T09:40:47.406Z,298
2024-05-09T09:41:56.638Z,298
2024-05-09T09:43:05.737Z,298
2024-05-09T09:44:14.957Z,309
2024-05-09T09:45:24.093Z,303
2024-05-09T09:46:33.293Z,303
2024-05-09T09:47:42.423Z,303
2024-05-09T09:48:51.657Z,303
2024-05-09T09:50:00.781Z,303
2024-05-09T09:51:10.020Z,309
2024-05-09T09:52:19.130Z,309
2024-05-09T09:53:28.311Z,309
2024-05-09T09:54:37.464Z,309
2024-05-09T09:55:45.689Z,309
2024-05-09T09:56:54.842Z,309
2024-05-09T09:58:04.009Z,309
2024-05-09T09:59:13.186Z,315
2024-05-09T10:00:22.343Z,315
2024-05-09T10:01:31.582Z,315
2024-05-09T10:02:40.681Z,315
2024-05-09T10:03:49.857Z,315
2024-05-09T10:04:59.048Z,315
2024-05-09T10:06:08.230Z,315
2024-05-09T10:07:17.436Z,315
2024-05-09T10:08:26.578Z,320
2024-05-09T10:09:35.757Z,320
2024-05-09T10:11:53.117Z,326
2024-05-09T10:13:01.285Z,326
2024-05-09T10:14:09.506Z,326
2024-05-09T10:15:17.653Z,326
2024-05-09T10:16:26.850Z,331
2024-05-09T10:17:36.039Z,331
2024-05-09T10:18:45.253Z,337
2024-05-09T10:19:54.409Z,337
2024-05-09T10:21:03.649Z,343
2024-05-09T10:22:12.728Z,348
2024-05-09T10:23:21.880Z,348
2024-05-09T10:24:31.142Z,348
2024-05-09T10:25:40.252Z,348
2024-05-09T10:26:49.653Z,348
2024-05-09T10:27:58.914Z,354
2024-05-09T10:29:07.794Z,354
2024-05-09T10:30:15.981Z,360
2024-05-09T10:31:25.235Z,365
2024-05-09T10:32:34.375Z,371
2024-05-09T10:33:43.446Z,376
2024-05-09T10:34:52.665Z,382
2024-05-09T10:36:01.774Z,388
2024-05-09T10:37:10.959Z,388
2024-05-09T10:38:20.109Z,382
2024-05-09T10:39:29.428Z,388
2024-05-09T10:40:38.510Z,388
2024-05-09T10:41:46.691Z,399
2024-05-09T10:42:54.850Z,393
2024-05-09T10:44:04.169Z,393
2024-05-09T10:45:13.193Z,399
2024-05-09T10:46:22.457Z,399
2024-05-09T10:47:31.530Z,399
2024-05-09T10:48:40.704Z,399
2024-05-09T10:49:49.877Z,399
2024-05-09T10:50:59.060Z,399
2024-05-09T10:52:08.215Z,393
2024-05-09T10:53:17.423Z,405
2024-05-09T10:54:26.572Z,393
2024-05-09T10:55:35.743Z,421
2024-05-09T10:56:44.933Z,421
2024-05-09T10:57:53.098Z,421
2024-05-09T10:59:02.358Z,405
2024-05-09T11:00:11.485Z,433
2024-05-09T11:01:20.627Z,444
2024-05-09T11:02:29.817Z,438
2024-05-09T11:03:39.023Z,399
2024-05-09T11:04:47.169Z,444
2024-05-09T11:05:55.379Z,455
2024-05-09T11:07:03.579Z,461
2024-05-09T11:08:12.758Z,461
2024-05-09T11:09:21.885Z,455
2024-05-09T11:10:31.064Z,371
2024-05-09T11:11:40.238Z,270
2024-05-09T11:12:49.446Z,264
2024-05-09T11:13:58.629Z,258
2024-05-09T11:15:07.885Z,258
2024-05-09T11:16:16.925Z,258
2024-05-09T11:17:26.117Z,258
2024-05-09T11:18:35.304Z,258
2024-05-09T11:19:44.456Z,264
2024-05-09T11:20:53.626Z,281
2024-05-09T11:22:02.069Z,472
2024-05-09T11:23:11.009Z,315
2024-05-09T11:24:20.170Z,472
2024-05-09T11:25:29.315Z,478
2024-05-09T11:26:38.490Z,472
2024-05-09T11:27:47.706Z,461
2024-05-09T11:28:55.870Z,275
2024-05-09T11:30:04.038Z,241
2024-05-09T11:31:13.211Z,230
2024-05-09T11:32:22.404Z,236
2024-05-09T11:33:31.558Z,230
2024-05-09T11:34:40.750Z,247
2024-05-09T11:35:49.931Z,455
2024-05-09T11:36:59.099Z,393
2024-05-09T11:38:08.401Z,236
2024-05-09T11:39:17.446Z,225
2024-05-09T11:40:26.629Z,343
2024-05-09T11:41:35.795Z,236
2024-05-09T11:42:44.959Z,376
2024-05-09T11:43:54.104Z,416
2024-05-09T11:45:02.301Z,444
2024-05-09T11:46:11.493Z,455
2024-05-09T11:47:20.642Z,455
2024-05-09T11:48:29.819Z,472
2024-05-09T11:49:38.996Z,466
2024-05-09T11:50:48.164Z,478
2024-05-09T11:51:56.372Z,478
2024-05-09T11:53:04.695Z,483
2024-05-09T11:54:12.812Z,489
2024-05-09T11:55:21.908Z,478
2024-05-09T11:56:31.106Z,466
2024-05-09T11:57:40.268Z,455
2024-05-09T11:58:50.010Z,450
2024-05-09T11:59:58.676Z,444
2024-05-09T12:01:07.765Z,450
2024-05-09T12:02:16.961Z,450
2024-05-09T12:03:26.178Z,450
2024-05-09T12:04:35.291Z,450
2024-05-09T12:05:44.480Z,455
2024-05-09T12:06:53.630Z,461
2024-05-09T12:08:02.810Z,461
2024-05-09T12:09:11.009Z,450
2024-05-09T12:10:20.210Z,433
2024-05-09T12:11:29.365Z,253
2024-05-09T12:12:38.517Z,247
2024-05-09T12:13:47.682Z,236
2024-05-09T12:14:56.863Z,376
2024-05-09T12:16:06.032Z,371
2024-05-09T12:17:15.228Z,388
2024-05-09T12:18:24.400Z,388
2024-05-09T12:19:33.547Z,337
2024-05-09T12:20:42.770Z,230
2024-05-09T12:21:51.924Z,236
2024-05-09T12:23:01.076Z,225
2024-05-09T12:24:09.251Z,225
2024-05-09T12:25:17.447Z,230
2024-05-09T12:26:25.679Z,241
2024-05-09T12:27:34.809Z,247
2024-05-09T12:28:43.987Z,253
2024-05-09T12:29:53.207Z,258
2024-05-09T12:31:02.466Z,264
2024-05-09T12:32:11.503Z,281
2024-05-09T12:33:20.752Z,438
2024-05-09T12:34:29.856Z,433
2024-05-09T12:35:39.004Z,433
2024-05-09T12:36:48.212Z,433
2024-05-09T12:37:57.371Z,433
2024-05-09T12:39:06.568Z,433
2024-05-09T12:40:15.700Z,438
2024-05-09T12:41:23.888Z,450
2024-05-09T12:42:33.060Z,455
2024-05-09T12:43:42.223Z,455
2024-05-09T12:44:51.407Z,455
2024-05-09T12:46:00.679Z,455
2024-05-09T12:48:19.122Z,455
2024-05-09T12:49:28.143Z,444
2024-05-09T12:50:36.284Z,461
2024-05-09T12:51:44.473Z,461
2024-05-09T12:52:53.686Z,472
2024-05-09T12:54:02.906Z,483
2024-05-09T12:55:12.129Z,489
2024-05-09T12:56:21.260Z,489
2024-05-09T12:57:30.640Z,489
2024-05-09T12:58:39.595Z,506
2024-05-09T12:59:48.735Z,500
2024-05-09T13:00:57.856Z,511
2024-05-09T13:02:07.252Z,511
2024-05-09T13:03:16.238Z,506
2024-05-09T13:04:25.621Z,506
2024-05-09T13:05:34.543Z,495
2024-05-09T13:06:42.751Z,500
2024-05-09T13:07:51.908Z,489
2024-05-09T13:09:01.233Z,500
2024-05-09T13:10:10.252Z,483
2024-05-09T13:11:20.194Z,511
2024-05-09T13:12:28.601Z,528
2024-05-09T13:13:36.801Z,534
2024-05-09T13:14:45.016Z,545
2024-05-09T13:15:53.352Z,551
2024-05-09T13:17:02.382Z,562
2024-05-09T13:18:11.513Z,573
2024-05-09T13:19:20.691Z,579
2024-05-09T13:20:29.942Z,601
2024-05-09T13:21:39.023Z,618
2024-05-09T13:22:48.226Z,613
2024-05-09T13:23:57.363Z,590
2024-05-09T13:25:06.535Z,675
2024-05-09T13:26:15.713Z,703
2024-05-09T13:27:24.884Z,421
2024-05-09T13:28:34.078Z,697
2024-05-09T13:29:43.222Z,680
2024-05-09T13:30:51.418Z,697
2024-05-09T13:32:00.576Z,742
2024-05-09T13:33:09.771Z,888
2024-05-09T13:34:18.926Z,1203
2024-05-09T13:35:28.109Z,1451
2024-05-09T13:36:37.270Z,1558
2024-05-09T13:37:46.483Z,1434
2024-05-09T13:38:55.627Z,1350
2024-05-09T13:40:04.791Z,1462
2024-05-09T13:41:14.072Z,1411
2024-05-09T13:42:23.136Z,1338
2024-05-09T13:43:32.317Z,1468
2024-05-09T13:44:41.482Z,1445
2024-05-09T13:45:49.856Z,1378
2024-05-09T13:46:58.865Z,1310
2024-05-09T13:48:09.295Z,1288
2024-05-09T13:49:17.265Z,1254
2024-05-09T13:50:26.347Z,1243
2024-05-09T13:51:35.531Z,1209
2024-05-09T13:52:44.715Z,1198
2024-05-09T13:53:52.929Z,1254
2024-05-09T13:55:01.116Z,1288
2024-05-09T13:56:10.308Z,1181
2024-05-09T13:57:19.434Z,1096
2024-05-09T13:58:28.601Z,1113
2024-05-09T13:59:37.803Z,1136
2024-05-09T14:00:47.078Z,1153
2024-05-09T14:01:56.124Z,1198
2024-05-09T14:03:05.289Z,1136
2024-05-09T14:04:14.576Z,1141
2024-05-09T14:06:32.804Z,1220
2024-05-09T14:07:42.071Z,1119
2024-05-09T14:08:51.243Z,1018
2024-05-09T14:09:59.405Z,945
2024-05-09T14:11:08.683Z,905
2024-05-09T14:12:17.684Z,1057
2024-05-09T14:13:26.888Z,1063
2024-05-09T14:14:36.065Z,1023
2024-05-09T14:15:45.342Z,995
2024-05-09T14:16:54.412Z,990
2024-05-09T14:18:03.588Z,1006
2024-05-09T14:19:12.926Z,900
2024-05-09T14:20:21.900Z,916
2024-05-09T14:21:31.136Z,939
2024-05-09T14:22:40.247Z,916
2024-05-09T14:23:50.217Z,905
2024-05-09T14:24:57.634Z,900
2024-05-09T14:26:06.790Z,776
2024-05-09T14:27:15.937Z,821
2024-05-09T14:28:25.230Z,990
2024-05-09T14:29:34.297Z,1288
2024-05-09T14:30:43.522Z,1102
2024-05-09T14:31:52.708Z,1051
2024-05-09T14:33:01.859Z,1046
2024-05-09T14:34:11.008Z,905
2024-05-09T14:35:20.166Z,984
2024-05-09T14:36:28.546Z,1012
2024-05-09T14:37:36.541Z,1051
2024-05-09T14:38:45.698Z,1231
2024-05-09T14:39:54.898Z,1198
2024-05-09T14:41:04.056Z,961
2024-05-09T14:42:13.212Z,871
2024-05-09T14:43:22.379Z,894
2024-05-09T14:44:31.541Z,1035
2024-05-09T14:45:40.788Z,1108
2024-05-09T14:46:49.896Z,961
2024-05-09T14:47:59.058Z,945
2024-05-09T14:49:08.243Z,956
2024-05-09T14:50:17.408Z,1091
2024-05-09T14:51:26.639Z,1029
2024-05-09T14:52:34.768Z,973
2024-05-09T14:53:43.955Z,900
2024-05-09T14:54:53.136Z,905
2024-05-09T14:56:02.445Z,1023
2024-05-09T14:57:10.487Z,1057
2024-05-09T14:58:19.722Z,916
2024-05-09T14:59:28.825Z,877
2024-05-09T15:00:38.058Z,1029
2024-05-09T15:01:47.173Z,1018
2024-05-09T15:02:56.362Z,984
2024-05-09T15:04:05.564Z,995
2024-05-09T15:05:14.684Z,945
2024-05-09T15:06:24.074Z,860
2024-05-09T15:07:33.008Z,742
2024-05-09T15:08:42.239Z,776
2024-05-09T15:09:51.442Z,646
2024-05-09T15:11:00.607Z,483
2024-05-09T15:12:08.820Z,714
2024-05-09T15:13:18.042Z,804
2024-05-09T15:14:27.101Z,663
2024-05-09T15:15:36.293Z,759
2024-05-09T15:16:45.450Z,798
2024-05-09T15:17:54.580Z,697
2024-05-09T15:19:03.787Z,753
2024-05-09T15:20:12.968Z,776
2024-05-09T15:21:22.235Z,781
2024-05-09T15:22:31.338Z,804
2024-05-09T15:23:40.497Z,821
2024-05-09T15:25:58.820Z,939
2024-05-09T15:27:06.996Z,956
2024-05-09T15:28:16.192Z,973
2024-05-09T15:29:25.334Z,995
2024-05-09T15:30:34.531Z,1085
2024-05-09T15:31:43.690Z,1096
2024-05-09T15:32:52.879Z,1130
2024-05-09T15:34:02.074Z,1113
2024-05-09T15:36:20.375Z,1153
2024-05-09T15:37:29.532Z,1226
2024-05-09T15:38:38.713Z,1153
2024-05-09T15:39:47.935Z,1040
2024-05-09T15:40:57.171Z,967
2024-05-09T15:42:05.413Z,922
2024-05-09T15:43:13.562Z,967
2024-05-09T15:44:21.632Z,748
2024-05-09T15:45:30.815Z,607
2024-05-09T15:46:40.051Z,562
2024-05-09T15:47:49.154Z,472
2024-05-09T15:48:58.411Z,410
2024-05-09T15:50:07.490Z,405
2024-05-09T15:51:16.739Z,376
2024-05-09T15:52:25.840Z,388
2024-05-09T15:53:35.007Z,382
2024-05-09T15:54:44.182Z,393
2024-05-09T15:55:53.536Z,371
2024-05-09T15:57:02.531Z,388
2024-05-09T15:58:11.794Z,376
2024-05-09T15:59:19.910Z,331
2024-05-09T16:00:29.110Z,309
2024-05-09T16:01:38.256Z,315
2024-05-09T16:02:47.403Z,309
2024-05-09T16:03:56.577Z,286
2024-05-09T16:05:05.750Z,270
2024-05-09T16:06:13.940Z,258
2024-05-09T16:07:22.254Z,253
2024-05-09T16:08:30.312Z,253
2024-05-09T16:09:39.497Z,253
2024-05-09T16:10:48.677Z,253
2024-05-09T16:11:57.839Z,247
2024-05-09T16:13:08.162Z,253
2024-05-09T16:14:16.202Z,253
2024-05-09T16:15:25.355Z,253
2024-05-09T16:16:34.535Z,253